Taneytown, Maryland
Current Conditions -  °F | °C
As of 1:05 PM on Thursday 27 Nov 2014 (Local Time) from KDMW Reporting Station
Broken Clouds Broken Clouds  
Wind Chill: 34°   Ceiling: 5500
Heat Index: 37°   Visibility: 10mi
Dew Point: 34°   Wind: 5mph
Humidity: 87%   Direction: 290°WNW
Pressure: 30.01"   Gusts: NA
Location:  39.66°N, 77.17°W
Report Text: KDMW 271805Z AUTO 29004KT 10SM SCT019 BKN055 03/01 A3001 RMK AO2
Loading
Personal Weather Stations






























Interactive Weather Map New forecast layout! Learn more

10-Day Weather Forecast

Advertisements
Track Severe Weather on mobile